createdAt,value
2023-05-09T00:00:21.800Z,24.47
2023-05-09T00:01:21.912Z,24.45
2023-05-09T00:02:22.027Z,24.47
2023-05-09T00:03:22.217Z,24.45
2023-05-09T00:04:22.204Z,24.45
2023-05-09T00:05:22.351Z,24.43
2023-05-09T00:06:22.393Z,24.45
2023-05-09T00:07:22.472Z,24.47
2023-05-09T00:08:22.571Z,24.43
2023-05-09T00:09:22.665Z,24.42
2023-05-09T00:10:22.779Z,24.43
2023-05-09T00:11:22.966Z,24.43
2023-05-09T00:12:23.032Z,24.47
2023-05-09T00:13:23.149Z,24.43
2023-05-09T00:14:23.156Z,24.43
2023-05-09T00:15:23.254Z,24.42
2023-05-09T00:16:23.376Z,24.43
2023-05-09T00:17:23.479Z,24.43
2023-05-09T00:18:23.561Z,24.47
2023-05-09T00:19:23.733Z,24.43
2023-05-09T00:20:23.833Z,24.47
2023-05-09T00:21:23.836Z,24.41
2023-05-09T00:22:23.936Z,24.42
2023-05-09T00:23:24.064Z,24.42
2023-05-09T00:24:24.109Z,24.42
2023-05-09T00:25:24.235Z,24.43
2023-05-09T00:26:24.305Z,24.42
2023-05-09T00:27:24.479Z,24.42
2023-05-09T00:28:24.487Z,24.42
2023-05-09T00:29:24.581Z,24.41
2023-05-09T00:30:24.690Z,24.42
2023-05-09T00:31:24.825Z,24.42
2023-05-09T00:32:24.890Z,24.39
2023-05-09T00:33:24.965Z,24.42
2023-05-09T00:34:25.074Z,24.39
2023-05-09T00:35:25.241Z,24.38
2023-05-09T00:36:25.257Z,24.39
2023-05-09T00:37:26.146Z,24.39
2023-05-09T00:38:25.450Z,24.41
2023-05-09T00:39:25.529Z,24.42
2023-05-09T00:40:25.621Z,24.41
2023-05-09T00:41:25.707Z,24.42
2023-05-09T00:42:25.809Z,24.41
2023-05-09T00:43:26.151Z,24.39
2023-05-09T00:44:26.005Z,24.38
2023-05-09T00:45:26.103Z,24.36
2023-05-09T00:46:26.197Z,24.39
2023-05-09T00:47:26.335Z,24.38
2023-05-09T00:48:26.468Z,24.39
2023-05-09T00:49:26.490Z,24.39
2023-05-09T00:50:26.579Z,24.38
2023-05-09T00:51:26.773Z,24.38
2023-05-09T00:52:26.777Z,24.39
2023-05-09T00:53:26.852Z,24.39
2023-05-09T00:54:26.933Z,24.39
2023-05-09T00:55:27.085Z,24.39
2023-05-09T00:56:27.114Z,24.36
2023-05-09T00:57:28.225Z,24.41
2023-05-09T00:58:27.316Z,24.38
2023-05-09T00:59:27.398Z,24.36
2023-05-09T01:00:27.580Z,24.38
2023-05-09T01:01:27.615Z,24.38
2023-05-09T01:02:27.692Z,24.36
2023-05-09T01:03:27.833Z,24.38
2023-05-09T01:04:27.853Z,24.38
2023-05-09T01:05:27.947Z,24.38
2023-05-09T01:06:28.039Z,24.35
2023-05-09T01:07:28.214Z,24.38
2023-05-09T01:08:28.662Z,24.36
2023-05-09T01:09:28.320Z,24.36
2023-05-09T01:10:28.410Z,24.38
2023-05-09T01:11:28.506Z,24.35
2023-05-09T01:12:28.596Z,24.35
2023-05-09T01:13:28.694Z,24.36
2023-05-09T01:14:28.789Z,24.35
2023-05-09T01:15:28.890Z,24.39
2023-05-09T01:16:29.025Z,24.34
2023-05-09T01:17:29.089Z,24.36
2023-05-09T01:18:29.175Z,24.35
2023-05-09T01:19:29.270Z,24.36
2023-05-09T01:20:29.442Z,24.35
2023-05-09T01:21:29.524Z,24.36
2023-05-09T01:22:29.581Z,24.32
2023-05-09T01:23:29.736Z,24.36
2023-05-09T01:24:29.739Z,24.35
2023-05-09T01:25:29.856Z,24.34
2023-05-09T01:26:29.934Z,24.35
2023-05-09T01:27:30.033Z,24.35
2023-05-09T01:28:30.136Z,24.34
2023-05-09T01:29:30.228Z,24.34
2023-05-09T01:30:30.337Z,24.32
2023-05-09T01:31:30.532Z,24.32
2023-05-09T01:32:30.565Z,24.32
2023-05-09T01:33:30.627Z,24.34
2023-05-09T01:34:30.727Z,24.31
2023-05-09T01:35:30.825Z,24.32
2023-05-09T01:36:30.924Z,24.31
2023-05-09T01:37:31.028Z,24.31
2023-05-09T01:38:31.282Z,24.31
2023-05-09T01:39:31.238Z,24.31
2023-05-09T01:40:31.340Z,24.32
2023-05-09T01:41:31.434Z,24.32
2023-05-09T01:42:31.526Z,24.31
2023-05-09T01:43:31.651Z,24.31
2023-05-09T01:44:31.735Z,24.32
2023-05-09T01:45:31.841Z,24.31
2023-05-09T01:46:32.003Z,24.32
2023-05-09T01:47:32.055Z,24.31
2023-05-09T01:48:32.120Z,24.32
2023-05-09T01:49:32.215Z,24.32
2023-05-09T01:50:32.325Z,24.30
2023-05-09T01:51:32.413Z,24.30
2023-05-09T01:52:32.510Z,24.28
2023-05-09T01:53:32.605Z,24.32
2023-05-09T01:54:32.847Z,24.31
2023-05-09T01:55:32.810Z,24.30
2023-05-09T01:56:32.893Z,24.32
2023-05-09T01:57:32.983Z,24.28
2023-05-09T01:58:33.101Z,24.28
2023-05-09T01:59:33.200Z,24.31
2023-05-09T02:00:33.291Z,24.28
2023-05-09T02:01:33.377Z,24.30
2023-05-09T02:02:33.506Z,24.30
2023-05-09T02:03:33.573Z,24.27
2023-05-09T02:04:33.660Z,24.30
2023-05-09T02:05:33.785Z,24.30
2023-05-09T02:06:33.876Z,24.30
2023-05-09T02:07:33.976Z,24.25
2023-05-09T02:08:34.064Z,24.30
2023-05-09T02:09:34.168Z,24.27
2023-05-09T02:10:34.338Z,24.28
2023-05-09T02:11:34.363Z,24.27
2023-05-09T02:12:34.464Z,24.27
2023-05-09T02:13:34.568Z,24.28
2023-05-09T02:14:34.663Z,24.27
2023-05-09T02:15:34.764Z,24.28
2023-05-09T02:16:34.907Z,24.28
2023-05-09T02:17:35.009Z,24.25
2023-05-09T02:18:35.059Z,24.28
2023-05-09T02:19:35.158Z,24.27
2023-05-09T02:20:36.189Z,24.27
2023-05-09T02:21:35.346Z,24.24
2023-05-09T02:22:35.453Z,24.25
2023-05-09T02:23:35.542Z,24.25
2023-05-09T02:24:35.674Z,24.24
2023-05-09T02:25:35.754Z,24.24
2023-05-09T02:26:35.924Z,24.25
2023-05-09T02:27:35.968Z,24.25
2023-05-09T02:28:36.044Z,24.27
2023-05-09T02:29:36.151Z,24.25
2023-05-09T02:30:36.244Z,24.24
2023-05-09T02:31:36.468Z,24.21
2023-05-09T02:32:36.519Z,24.24
2023-05-09T02:33:36.555Z,24.24
2023-05-09T02:34:36.654Z,24.24
2023-05-09T02:35:36.762Z,24.21
2023-05-09T02:36:36.914Z,24.22
2023-05-09T02:37:36.962Z,24.21
2023-05-09T02:38:37.053Z,24.22
2023-05-09T02:39:37.157Z,24.22
2023-05-09T02:40:37.254Z,24.24
2023-05-09T02:41:37.356Z,24.24
2023-05-09T02:42:37.795Z,24.21
2023-05-09T02:43:37.580Z,24.22
2023-05-09T02:44:37.669Z,24.24
2023-05-09T02:45:37.776Z,24.25
2023-05-09T02:46:37.879Z,24.22
2023-05-09T02:47:37.994Z,24.24
2023-05-09T02:48:38.092Z,24.18
2023-05-09T02:49:38.192Z,24.18
2023-05-09T02:50:38.501Z,24.22
2023-05-09T02:51:38.416Z,24.21
2023-05-09T02:52:38.505Z,24.22
2023-05-09T02:53:38.595Z,24.20
2023-05-09T02:54:38.703Z,24.21
2023-05-09T02:55:38.809Z,24.22
2023-05-09T02:56:38.909Z,24.21
2023-05-09T02:57:39.069Z,24.21
2023-05-09T02:58:39.209Z,24.21
2023-05-09T02:59:39.223Z,24.20
2023-05-09T03:00:39.323Z,24.21
2023-05-09T03:01:39.449Z,24.21
2023-05-09T03:02:39.589Z,24.20
2023-05-09T03:03:39.706Z,24.17
2023-05-09T03:04:40.219Z,24.20
2023-05-09T03:05:39.847Z,24.20
2023-05-09T03:06:39.957Z,24.20
2023-05-09T03:07:40.054Z,24.17
2023-05-09T03:08:40.159Z,24.20
2023-05-09T03:09:41.315Z,24.20
2023-05-09T03:10:40.370Z,24.18
2023-05-09T03:11:40.475Z,24.18
2023-05-09T03:12:40.613Z,24.18
2023-05-09T03:13:40.771Z,24.20
2023-05-09T03:14:40.793Z,24.20
2023-05-09T03:15:40.899Z,24.20
2023-05-09T03:16:40.988Z,24.18
2023-05-09T03:17:41.104Z,24.18
2023-05-09T03:18:41.203Z,24.18
2023-05-09T03:19:42.220Z,24.17
2023-05-09T03:20:41.403Z,24.17
2023-05-09T03:21:41.509Z,24.17
2023-05-09T03:22:41.629Z,24.17
2023-05-09T03:23:41.719Z,24.15
2023-05-09T03:24:41.812Z,24.14
2023-05-09T03:25:41.916Z,24.17
2023-05-09T03:26:42.022Z,24.15
2023-05-09T03:27:42.717Z,24.17
2023-05-09T03:28:42.232Z,24.15
2023-05-09T03:29:42.420Z,24.15
2023-05-09T03:30:42.436Z,24.15
2023-05-09T03:31:42.589Z,24.14
2023-05-09T03:32:42.693Z,24.14
2023-05-09T03:33:42.765Z,24.11
2023-05-09T03:34:42.862Z,24.15
2023-05-09T03:35:42.979Z,24.12
2023-05-09T03:36:43.064Z,24.12
2023-05-09T03:37:43.182Z,24.12
2023-05-09T03:38:43.281Z,24.12
2023-05-09T03:39:43.424Z,24.14
2023-05-09T03:40:43.547Z,24.12
2023-05-09T03:41:43.608Z,24.12
2023-05-09T03:42:43.718Z,24.12
2023-05-09T03:43:44.239Z,24.14
2023-05-09T03:44:43.922Z,24.11
2023-05-09T03:45:44.130Z,24.11
2023-05-09T03:46:44.157Z,24.14
2023-05-09T03:47:44.250Z,24.14
2023-05-09T03:48:44.359Z,24.11
2023-05-09T03:49:44.469Z,24.14
2023-05-09T03:50:44.580Z,24.11
2023-05-09T03:51:44.685Z,24.12
2023-05-09T03:52:44.810Z,24.11
2023-05-09T03:53:44.907Z,24.11
2023-05-09T03:54:45.017Z,24.10
2023-05-09T03:55:45.124Z,24.11
2023-05-09T03:56:45.229Z,24.11
2023-05-09T03:57:45.404Z,24.12
2023-05-09T03:58:45.489Z,24.10
2023-05-09T03:59:45.624Z,24.10
2023-05-09T04:00:45.678Z,24.08
2023-05-09T04:01:45.910Z,24.10
2023-05-09T04:02:45.946Z,24.10
2023-05-09T04:03:46.369Z,24.10
2023-05-09T04:04:46.217Z,24.10
2023-05-09T04:05:46.236Z,24.07
2023-05-09T04:06:46.368Z,24.11
2023-05-09T04:07:46.450Z,24.08
2023-05-09T04:08:46.569Z,24.11
2023-05-09T04:09:46.672Z,24.11
2023-05-09T04:10:46.816Z,24.07
2023-05-09T04:11:46.899Z,24.10
2023-05-09T04:12:47.049Z,24.10
2023-05-09T04:13:47.145Z,24.08
2023-05-09T04:14:49.052Z,24.07
2023-05-09T04:15:47.408Z,24.05
2023-05-09T04:16:47.610Z,24.08
2023-05-09T04:17:47.635Z,24.05
2023-05-09T04:18:47.692Z,24.07
2023-05-09T04:19:47.802Z,24.05
2023-05-09T04:20:47.923Z,24.08
2023-05-09T04:21:48.027Z,24.07
2023-05-09T04:22:48.148Z,24.10
2023-05-09T04:23:48.263Z,24.08
2023-05-09T04:24:48.373Z,24.08
2023-05-09T04:25:48.493Z,24.07
2023-05-09T04:26:48.594Z,24.05
2023-05-09T04:27:48.717Z,24.07
2023-05-09T04:28:48.815Z,24.04
2023-05-09T04:29:48.998Z,24.04
2023-05-09T04:30:49.189Z,24.03
2023-05-09T04:31:49.218Z,24.07
2023-05-09T04:32:49.409Z,24.03
2023-05-09T04:33:49.375Z,24.05
2023-05-09T04:34:49.478Z,24.04
2023-05-09T04:35:49.650Z,24.04
2023-05-09T04:36:49.719Z,24.05
2023-05-09T04:37:49.828Z,24.03
2023-05-09T04:38:50.026Z,24.04
2023-05-09T04:39:50.045Z,24.04
2023-05-09T04:40:50.160Z,24.04
2023-05-09T04:41:50.278Z,24.05
2023-05-09T04:42:50.376Z,24.04
2023-05-09T04:43:51.717Z,24.04
2023-05-09T04:44:50.597Z,24.04
2023-05-09T04:45:50.750Z,24.03
2023-05-09T04:46:50.827Z,24.04
2023-05-09T04:47:50.958Z,24.04
2023-05-09T04:48:51.186Z,24.03
2023-05-09T04:49:51.156Z,24.03
2023-05-09T04:50:51.273Z,24.03
2023-05-09T04:51:51.387Z,24.05
2023-05-09T04:52:51.500Z,24.03
2023-05-09T04:53:51.615Z,24.04
2023-05-09T04:54:51.730Z,24.01
2023-05-09T04:55:51.832Z,24.01
2023-05-09T04:56:53.131Z,24.03
2023-05-09T04:57:52.044Z,24.03
2023-05-09T04:58:52.167Z,24.03
2023-05-09T04:59:52.280Z,24.03
2023-05-09T05:00:52.387Z,24.01
2023-05-09T05:01:52.566Z,24.01
2023-05-09T05:02:52.676Z,24.01
2023-05-09T05:03:52.725Z,24.00
2023-05-09T05:05:00.141Z,24.03
2023-05-09T05:05:53.932Z,24.01
2023-05-09T05:06:52.950Z,24.00
2023-05-09T05:07:53.010Z,24.00
2023-05-09T05:08:53.259Z,23.99
2023-05-09T05:09:53.124Z,24.00
2023-05-09T05:10:53.176Z,24.00
2023-05-09T05:12:00.674Z,24.01
2023-05-09T05:12:54.304Z,24.01
2023-05-09T05:13:53.341Z,24.00
2023-05-09T05:14:53.409Z,24.00
2023-05-09T05:15:53.502Z,23.99
2023-05-09T05:16:53.513Z,23.99
2023-05-09T05:17:53.607Z,24.00
2023-05-09T05:18:53.633Z,24.00
2023-05-09T05:19:53.680Z,23.99
2023-05-09T05:20:53.881Z,23.99
2023-05-09T05:21:53.903Z,23.99
2023-05-09T05:22:54.017Z,23.99
2023-05-09T05:23:54.490Z,23.99
2023-05-09T05:24:54.260Z,24.00
2023-05-09T05:25:54.377Z,24.00
2023-05-09T05:26:54.452Z,23.99
2023-05-09T05:27:54.543Z,23.96
2023-05-09T05:28:54.628Z,23.90
2023-05-09T05:29:54.694Z,23.87
2023-05-09T05:30:54.844Z,23.81
2023-05-09T05:31:54.901Z,23.81
2023-05-09T05:32:55.071Z,23.81
2023-05-09T05:33:55.034Z,23.81
2023-05-09T05:34:55.097Z,23.80
2023-05-09T05:35:55.282Z,23.81
2023-05-09T05:36:55.446Z,23.83
2023-05-09T05:37:55.491Z,23.80
2023-05-09T05:38:55.595Z,23.80
2023-05-09T05:39:55.707Z,23.74
2023-05-09T05:40:55.805Z,23.74
2023-05-09T05:41:55.924Z,23.76
2023-05-09T05:42:55.981Z,23.76
2023-05-09T05:43:56.310Z,23.81
2023-05-09T05:44:56.143Z,23.81
2023-05-09T05:45:56.269Z,23.80
2023-05-09T05:46:56.303Z,23.81
2023-05-09T05:47:56.413Z,23.84
2023-05-09T05:48:56.438Z,23.87
2023-05-09T05:49:56.501Z,23.87
2023-05-09T05:50:57.280Z,23.90
2023-05-09T05:51:56.609Z,23.94
2023-05-09T05:52:56.813Z,23.94
2023-05-09T05:53:56.725Z,24.00
2023-05-09T05:54:56.822Z,24.00
2023-05-09T05:55:56.801Z,24.03
2023-05-09T05:56:56.855Z,24.08
2023-05-09T05:57:56.904Z,24.11
2023-05-09T05:58:56.937Z,24.15
2023-05-09T05:59:56.998Z,24.18
2023-05-09T06:00:57.050Z,24.24
2023-05-09T06:01:57.116Z,24.25
2023-05-09T06:02:57.255Z,24.32
2023-05-09T06:03:57.316Z,24.34
2023-05-09T06:04:57.350Z,24.38
2023-05-09T06:05:57.347Z,24.35
2023-05-09T06:06:57.433Z,24.39
2023-05-09T06:07:57.532Z,24.43
2023-05-09T06:08:57.681Z,24.45
2023-05-09T06:09:57.701Z,24.47
2023-05-09T06:10:57.768Z,24.47
2023-05-09T06:11:57.869Z,24.48
2023-05-09T06:12:57.996Z,24.49
2023-05-09T06:13:58.790Z,24.52
2023-05-09T06:14:58.118Z,24.49
2023-05-09T06:16:07.757Z,24.54
2023-05-09T06:16:59.306Z,24.52
2023-05-09T06:17:58.363Z,24.52
2023-05-09T06:18:58.347Z,24.51
2023-05-09T06:19:58.391Z,24.51
2023-05-09T06:20:58.455Z,24.45
2023-05-09T06:21:58.485Z,24.47
2023-05-09T06:22:58.556Z,24.48
2023-05-09T06:24:09.873Z,24.47
2023-05-09T06:24:59.737Z,24.47
2023-05-09T06:25:58.690Z,24.48
2023-05-09T06:26:58.749Z,24.45
2023-05-09T06:27:58.874Z,24.43
2023-05-09T06:28:58.826Z,24.43
2023-05-09T06:29:58.875Z,24.43
2023-05-09T06:30:58.930Z,24.45
2023-05-09T06:31:59.225Z,24.45
2023-05-09T06:32:59.064Z,24.45
2023-05-09T06:33:59.057Z,24.43
2023-05-09T06:34:59.107Z,24.43
2023-05-09T06:35:59.185Z,24.42
2023-05-09T06:36:59.800Z,24.48
2023-05-09T06:37:59.312Z,24.45
2023-05-09T06:38:59.410Z,24.43
2023-05-09T06:39:59.501Z,24.42
2023-05-09T06:40:59.680Z,24.45
2023-05-09T06:41:59.678Z,24.48
2023-05-09T06:42:59.786Z,24.45
2023-05-09T06:43:59.885Z,24.45
2023-05-09T06:44:59.976Z,24.43
2023-05-09T06:46:00.112Z,24.42
2023-05-09T06:47:00.167Z,24.42
2023-05-09T06:48:00.323Z,24.45
2023-05-09T06:49:00.354Z,24.43
2023-05-09T06:50:00.459Z,24.45
2023-05-09T06:51:00.679Z,24.45
2023-05-09T06:52:00.671Z,24.43
2023-05-09T06:53:00.762Z,24.45
2023-05-09T06:54:00.856Z,24.42
2023-05-09T06:55:01.930Z,24.42
2023-05-09T06:56:01.061Z,24.43
2023-05-09T06:57:01.233Z,24.45
2023-05-09T06:58:01.245Z,24.47
2023-05-09T06:59:01.353Z,24.45
2023-05-09T07:00:01.458Z,24.47
2023-05-09T07:01:01.579Z,24.45
2023-05-09T07:02:01.682Z,24.48
2023-05-09T07:03:01.796Z,24.42
2023-05-09T07:04:01.833Z,24.45
2023-05-09T07:05:01.989Z,24.45
2023-05-09T07:06:02.036Z,24.48
2023-05-09T07:07:02.136Z,24.45
2023-05-09T07:08:02.814Z,24.47
2023-05-09T07:09:03.307Z,24.47
2023-05-09T07:10:10.641Z,24.45
2023-05-09T07:11:03.489Z,24.47
2023-05-09T07:12:02.557Z,24.45
2023-05-09T07:13:02.716Z,24.43
2023-05-09T07:14:02.651Z,24.41
2023-05-09T07:15:02.709Z,24.42
2023-05-09T07:16:02.818Z,24.43
2023-05-09T07:17:21.200Z,24.43
2023-05-09T07:18:03.885Z,24.42
2023-05-09T07:19:02.903Z,24.39
2023-05-09T07:20:02.958Z,24.39
2023-05-09T07:21:03.017Z,24.35
2023-05-09T07:22:03.077Z,24.30
2023-05-09T07:23:03.176Z,24.30
2023-05-09T07:24:03.177Z,24.27
2023-05-09T07:25:03.219Z,24.22
2023-05-09T07:26:03.264Z,24.22
2023-05-09T07:27:03.312Z,24.18
2023-05-09T07:28:03.373Z,24.18
2023-05-09T07:29:03.492Z,24.15
2023-05-09T07:30:03.455Z,24.14
2023-05-09T07:31:03.497Z,24.15
2023-05-09T07:32:03.656Z,24.15
2023-05-09T07:33:03.685Z,24.20
2023-05-09T07:34:03.625Z,24.22
2023-05-09T07:35:03.681Z,24.22
2023-05-09T07:36:03.726Z,24.21
2023-05-09T07:37:03.823Z,24.22
2023-05-09T07:38:03.923Z,24.25
2023-05-09T07:39:04.033Z,24.32
2023-05-09T07:40:04.142Z,24.30
2023-05-09T07:41:04.250Z,24.30
2023-05-09T07:42:04.361Z,24.32
2023-05-09T07:43:04.480Z,24.32
2023-05-09T07:44:04.569Z,24.32
2023-05-09T07:45:04.752Z,24.34
2023-05-09T07:46:04.790Z,24.32
2023-05-09T07:47:04.875Z,24.36
2023-05-09T07:48:04.972Z,24.35
2023-05-09T07:49:05.044Z,24.38
2023-05-09T07:50:05.097Z,24.36
2023-05-09T07:51:05.173Z,24.36
2023-05-09T07:52:05.261Z,24.36
2023-05-09T07:53:05.344Z,24.36
2023-05-09T07:54:05.834Z,24.38
2023-05-09T07:55:06.326Z,24.43
2023-05-09T07:56:05.616Z,24.42
2023-05-09T07:57:05.614Z,24.43
2023-05-09T07:58:05.677Z,24.43
2023-05-09T07:59:05.762Z,24.43
2023-05-09T08:00:05.802Z,24.48
2023-05-09T08:01:05.965Z,24.49
2023-05-09T08:02:05.966Z,24.52
2023-05-09T08:03:06.107Z,24.52
2023-05-09T08:04:06.078Z,24.56
2023-05-09T08:05:06.838Z,24.59
2023-05-09T08:06:06.138Z,24.58
2023-05-09T08:07:06.209Z,24.60
2023-05-09T08:08:06.314Z,24.66
2023-05-09T08:09:06.339Z,24.66
2023-05-09T08:10:06.422Z,24.68
2023-05-09T08:11:06.428Z,24.72
2023-05-09T08:12:06.493Z,24.83
2023-05-09T08:13:06.586Z,24.86
2023-05-09T08:14:06.632Z,24.87
2023-05-09T08:15:06.700Z,24.93
2023-05-09T08:16:06.831Z,24.96
2023-05-09T08:17:06.954Z,25.00
2023-05-09T08:18:06.974Z,25.02
2023-05-09T08:19:08.846Z,25.10
2023-05-09T08:20:07.040Z,25.05
2023-05-09T08:21:07.080Z,25.05
2023-05-09T08:22:07.149Z,25.05
2023-05-09T08:23:07.161Z,25.03
2023-05-09T08:24:07.211Z,25.03
2023-05-09T08:25:07.242Z,24.99
2023-05-09T08:26:07.291Z,24.89
2023-05-09T08:27:07.353Z,24.82
2023-05-09T08:28:07.391Z,24.83
2023-05-09T08:29:07.432Z,24.79
2023-05-09T08:30:07.472Z,24.76
2023-05-09T08:31:07.543Z,24.78
2023-05-09T08:32:07.552Z,24.76
2023-05-09T08:33:07.847Z,24.79
2023-05-09T08:34:07.789Z,24.76
2023-05-09T08:35:07.826Z,24.76
2023-05-09T08:36:07.922Z,24.79
2023-05-09T08:37:07.967Z,24.78
2023-05-09T08:38:08.035Z,24.78
2023-05-09T08:39:08.095Z,24.76
2023-05-09T08:40:08.167Z,24.76
2023-05-09T08:41:08.219Z,24.79
2023-05-09T08:42:08.301Z,24.78
2023-05-09T08:43:08.328Z,24.79
2023-05-09T08:44:08.403Z,24.76
2023-05-09T08:45:08.534Z,24.78
2023-05-09T08:46:08.627Z,24.78
2023-05-09T08:47:08.515Z,24.80
2023-05-09T08:48:08.637Z,24.80
2023-05-09T08:49:08.699Z,24.82
2023-05-09T08:50:08.629Z,24.83
2023-05-09T08:51:08.675Z,24.85
2023-05-09T08:52:08.744Z,24.86
2023-05-09T08:53:08.722Z,24.86
2023-05-09T08:54:08.756Z,24.90
2023-05-09T08:55:08.800Z,24.91
2023-05-09T08:56:08.857Z,24.93
2023-05-09T08:57:08.888Z,24.90
2023-05-09T08:58:08.956Z,24.97
2023-05-09T08:59:09.007Z,24.99
2023-05-09T09:00:09.038Z,25.05
2023-05-09T09:01:09.092Z,25.03
2023-05-09T09:02:09.208Z,25.03
2023-05-09T09:03:09.232Z,25.09
2023-05-09T09:04:09.246Z,25.07
2023-05-09T09:05:19.607Z,25.07
2023-05-09T09:06:10.333Z,25.16
2023-05-09T09:07:09.346Z,25.17
2023-05-09T09:08:09.383Z,25.14
2023-05-09T09:09:09.388Z,25.16
2023-05-09T09:10:09.402Z,25.16
2023-05-09T09:11:09.424Z,25.18
2023-05-09T09:12:10.376Z,25.21
2023-05-09T09:13:09.485Z,25.24
2023-05-09T09:14:09.491Z,25.23
2023-05-09T09:15:09.508Z,25.23
2023-05-09T09:16:10.398Z,25.28
2023-05-09T09:17:09.583Z,25.31
2023-05-09T09:18:09.699Z,25.34
2023-05-09T09:19:09.716Z,25.33
2023-05-09T09:20:09.814Z,25.34
2023-05-09T09:21:09.925Z,25.34
2023-05-09T09:22:10.884Z,25.33
2023-05-09T09:23:09.943Z,25.33
2023-05-09T09:24:09.988Z,25.31
2023-05-09T09:25:10.002Z,25.30
2023-05-09T09:26:10.124Z,25.33
2023-05-09T09:27:10.134Z,25.33
2023-05-09T09:28:10.117Z,25.31
2023-05-09T09:29:10.174Z,25.34
2023-05-09T09:30:10.234Z,25.30
2023-05-09T09:31:10.220Z,25.34
2023-05-09T09:32:10.280Z,25.34
2023-05-09T09:33:10.288Z,25.37
2023-05-09T09:34:10.301Z,25.38
2023-05-09T09:35:10.322Z,25.35
2023-05-09T09:36:10.377Z,25.37
2023-05-09T09:37:10.510Z,25.40
2023-05-09T09:38:10.446Z,25.41
2023-05-09T09:39:10.489Z,25.40
2023-05-09T09:40:10.588Z,25.40
2023-05-09T09:41:10.646Z,25.38
2023-05-09T09:42:10.720Z,25.40
2023-05-09T09:43:11.378Z,25.38
2023-05-09T09:44:10.896Z,25.38
2023-05-09T09:45:11.001Z,25.37
2023-05-09T09:46:11.120Z,25.35
2023-05-09T09:47:11.892Z,25.40
2023-05-09T09:48:11.362Z,25.38
2023-05-09T09:49:11.328Z,25.41
2023-05-09T09:50:12.381Z,25.40
2023-05-09T09:51:11.549Z,25.40
2023-05-09T09:52:11.597Z,25.40
2023-05-09T09:53:11.690Z,25.41
2023-05-09T09:54:11.672Z,25.42
2023-05-09T09:55:11.719Z,25.45
2023-05-09T09:56:11.777Z,25.41
2023-05-09T09:57:11.832Z,25.45
2023-05-09T09:58:11.870Z,25.44
2023-05-09T09:59:12.386Z,25.41
2023-05-09T10:00:12.024Z,25.40
2023-05-09T10:01:12.049Z,25.41
2023-05-09T10:02:12.109Z,25.40
2023-05-09T10:03:12.249Z,25.42
2023-05-09T10:04:12.405Z,25.44
2023-05-09T10:05:12.409Z,25.47
2023-05-09T10:06:12.494Z,25.49
2023-05-09T10:07:14.808Z,25.54
2023-05-09T10:08:12.572Z,25.54
2023-05-09T10:09:12.686Z,25.60
2023-05-09T10:10:12.850Z,25.58
2023-05-09T10:11:12.647Z,25.61
2023-05-09T10:12:12.725Z,25.61
2023-05-09T10:13:12.765Z,25.64
2023-05-09T10:14:12.724Z,25.65
2023-05-09T10:15:12.778Z,25.62
2023-05-09T10:16:12.912Z,25.64
2023-05-09T10:17:12.907Z,25.62
2023-05-09T10:18:12.962Z,25.62
2023-05-09T10:19:12.833Z,25.61
2023-05-09T10:20:13.112Z,25.61
2023-05-09T10:21:13.034Z,25.58
2023-05-09T10:22:12.908Z,25.54
2023-05-09T10:23:13.045Z,25.54
2023-05-09T10:24:13.962Z,25.52
2023-05-09T10:25:13.392Z,25.47
2023-05-09T10:26:13.067Z,25.45
2023-05-09T10:27:13.066Z,25.44
2023-05-09T10:28:13.083Z,25.42
2023-05-09T10:29:13.066Z,25.41
2023-05-09T10:30:13.127Z,25.38
2023-05-09T10:31:13.304Z,25.38
2023-05-09T10:32:13.152Z,25.35
2023-05-09T10:33:13.172Z,25.35
2023-05-09T10:34:13.250Z,25.34
2023-05-09T10:35:13.474Z,25.34
2023-05-09T10:36:13.255Z,25.33
2023-05-09T10:37:13.291Z,25.33
2023-05-09T10:38:13.318Z,25.30
2023-05-09T10:39:13.343Z,25.26
2023-05-09T10:40:13.903Z,25.28
2023-05-09T10:41:14.505Z,25.24
2023-05-09T10:42:13.466Z,25.28
2023-05-09T10:43:13.523Z,25.23
2023-05-09T10:44:13.581Z,25.24
2023-05-09T10:45:14.039Z,25.23
2023-05-09T10:46:13.702Z,25.21
2023-05-09T10:47:13.710Z,25.21
2023-05-09T10:48:13.768Z,25.21
2023-05-09T10:49:13.833Z,25.20
2023-05-09T10:50:13.885Z,25.20
2023-05-09T10:51:13.964Z,25.18
2023-05-09T10:52:14.009Z,25.18
2023-05-09T10:53:14.142Z,25.18
2023-05-09T10:54:14.143Z,25.17
2023-05-09T10:55:14.435Z,25.18
2023-05-09T10:56:14.245Z,25.16
2023-05-09T10:57:14.413Z,25.13
2023-05-09T10:58:14.370Z,25.17
2023-05-09T10:59:14.506Z,25.16
2023-05-09T11:00:14.500Z,25.14
2023-05-09T11:01:15.487Z,25.11
2023-05-09T11:02:14.623Z,25.14
2023-05-09T11:03:14.751Z,25.11
2023-05-09T11:04:15.028Z,25.13
2023-05-09T11:05:15.070Z,25.13
2023-05-09T11:06:14.859Z,25.13
2023-05-09T11:07:14.921Z,25.10
2023-05-09T11:08:14.992Z,25.09
2023-05-09T11:09:15.070Z,25.07
2023-05-09T11:10:15.120Z,25.10
2023-05-09T11:11:15.168Z,25.03
2023-05-09T11:12:15.266Z,25.05
2023-05-09T11:13:15.347Z,25.03
2023-05-09T11:14:15.367Z,25.03
2023-05-09T11:15:15.626Z,25.02
2023-05-09T11:16:15.532Z,25.03
2023-05-09T11:17:15.555Z,25.03
2023-05-09T11:18:16.212Z,25.05
2023-05-09T11:19:15.689Z,25.06
2023-05-09T11:20:15.825Z,25.06
2023-05-09T11:21:15.852Z,25.05
2023-05-09T11:22:15.903Z,25.06
2023-05-09T11:23:15.943Z,25.05
2023-05-09T11:24:16.026Z,25.07
2023-05-09T11:25:16.612Z,25.03
2023-05-09T11:26:16.144Z,25.05
2023-05-09T11:27:16.183Z,25.06
2023-05-09T11:28:16.250Z,25.07
2023-05-09T11:29:16.405Z,25.05
2023-05-09T11:30:16.423Z,25.07
2023-05-09T11:31:16.456Z,25.05
2023-05-09T11:32:16.554Z,25.07
2023-05-09T11:33:16.579Z,25.05
2023-05-09T11:34:16.639Z,25.11
2023-05-09T11:35:17.074Z,25.07
2023-05-09T11:36:16.776Z,25.09
2023-05-09T11:37:16.824Z,25.10
2023-05-09T11:38:16.885Z,25.09
2023-05-09T11:39:17.933Z,25.10
2023-05-09T11:40:17.029Z,25.09
2023-05-09T11:41:17.073Z,25.07
2023-05-09T11:42:17.124Z,25.13
2023-05-09T11:43:17.186Z,25.13
2023-05-09T11:44:17.252Z,25.13
2023-05-09T11:45:17.700Z,25.14
2023-05-09T11:46:17.470Z,25.13
2023-05-09T11:47:17.419Z,25.16
2023-05-09T11:48:17.471Z,25.14
2023-05-09T11:49:17.523Z,25.17
2023-05-09T11:50:17.934Z,25.14
2023-05-09T11:51:17.631Z,25.16
2023-05-09T11:52:17.712Z,25.16
2023-05-09T11:53:17.737Z,25.16
2023-05-09T11:54:17.789Z,25.17
2023-05-09T11:55:18.085Z,25.18
2023-05-09T11:56:17.935Z,25.20
2023-05-09T11:57:17.961Z,25.18
2023-05-09T11:58:17.994Z,25.18
2023-05-09T11:59:18.917Z,25.20
2023-05-09T12:00:18.084Z,25.18
2023-05-09T12:01:19.027Z,25.20
2023-05-09T12:02:18.200Z,25.20
2023-05-09T12:03:18.356Z,25.23
2023-05-09T12:04:18.349Z,25.20
2023-05-09T12:05:18.362Z,25.21
2023-05-09T12:06:18.353Z,25.23
2023-05-09T12:07:18.389Z,25.18
2023-05-09T12:08:18.428Z,25.23
2023-05-09T12:09:19.461Z,25.23
2023-05-09T12:10:18.501Z,25.21
2023-05-09T12:11:18.576Z,25.23
2023-05-09T12:12:19.448Z,25.21
2023-05-09T12:13:18.589Z,25.23
2023-05-09T12:14:18.593Z,25.23
2023-05-09T12:15:19.347Z,25.24
2023-05-09T12:16:18.700Z,25.23
2023-05-09T12:17:19.529Z,25.26
2023-05-09T12:18:18.724Z,25.27
2023-05-09T12:19:18.746Z,25.26
2023-05-09T12:20:18.759Z,25.27
2023-05-09T12:21:18.783Z,25.28
2023-05-09T12:22:18.812Z,25.27
2023-05-09T12:23:18.851Z,25.27
2023-05-09T12:24:18.854Z,25.28
2023-05-09T12:25:18.894Z,25.31
2023-05-09T12:26:18.915Z,25.31
2023-05-09T12:27:18.934Z,25.30
2023-05-09T12:28:18.967Z,25.28
2023-05-09T12:29:19.001Z,25.30
2023-05-09T12:30:19.025Z,25.31
2023-05-09T12:31:19.120Z,25.31
2023-05-09T12:32:19.075Z,25.35
2023-05-09T12:33:19.189Z,25.33
2023-05-09T12:34:19.142Z,25.31
2023-05-09T12:35:19.163Z,25.31
2023-05-09T12:36:19.178Z,25.33
2023-05-09T12:37:19.215Z,25.34
2023-05-09T12:38:19.241Z,25.34
2023-05-09T12:39:19.254Z,25.38
2023-05-09T12:40:19.330Z,25.38
2023-05-09T12:41:34.861Z,25.38
2023-05-09T12:42:20.427Z,25.38
2023-05-09T12:43:19.444Z,25.40
2023-05-09T12:44:19.471Z,25.40
2023-05-09T12:45:19.501Z,25.41
2023-05-09T12:46:19.566Z,25.41
2023-05-09T12:47:19.578Z,25.40
2023-05-09T12:48:19.561Z,25.42
2023-05-09T12:49:19.983Z,25.42
2023-05-09T12:50:19.600Z,25.44
2023-05-09T12:51:19.696Z,25.44
2023-05-09T12:52:19.718Z,25.45
2023-05-09T12:53:19.806Z,25.44